sensor_id;sensor_type;location;lat;lon;timestamp;temperature;humidity
38500;DHT22;24269;51.894;4.622;2022-11-23T00:00:28;8.90;99.90
38500;DHT22;24269;51.894;4.622;2022-11-23T00:02:59;8.90;99.90
38500;DHT22;24269;51.894;4.622;2022-11-23T00:05:26;8.90;99.90
38500;DHT22;24269;51.894;4.622;2022-11-23T00:07:52;8.90;99.90
38500;DHT22;24269;51.894;4.622;2022-11-23T00:10:18;8.90;99.90
38500;DHT22;24269;51.894;4.622;2022-11-23T00:12:44;8.90;99.90
38500;DHT22;24269;51.894;4.622;2022-11-23T00:15:11;8.90;99.90
38500;DHT22;24269;51.894;4.622;2022-11-23T00:17:37;8.90;99.90
38500;DHT22;24269;51.894;4.622;2022-11-23T00:20:04;9.00;99.90
38500;DHT22;24269;51.894;4.622;2022-11-23T00:22:30;9.00;99.90
38500;DHT22;24269;51.894;4.622;2022-11-23T00:24:55;9.00;99.90
38500;DHT22;24269;51.894;4.622;2022-11-23T00:27:21;9.00;99.90
38500;DHT22;24269;51.894;4.622;2022-11-23T00:29:46;9.00;99.90
38500;DHT22;24269;51.894;4.622;2022-11-23T00:32:12;9.10;99.90
38500;DHT22;24269;51.894;4.622;2022-11-23T00:34:38;9.10;99.90
38500;DHT22;24269;51.894;4.622;2022-11-23T00:37:03;9.00;99.90
38500;DHT22;24269;51.894;4.622;2022-11-23T00:39:29;9.10;99.90
38500;DHT22;24269;51.894;4.622;2022-11-23T00:41:54;9.00;99.90
38500;DHT22;24269;51.894;4.622;2022-11-23T00:44:20;9.10;99.90
38500;DHT22;24269;51.894;4.622;2022-11-23T00:46:45;9.10;99.90
38500;DHT22;24269;51.894;4.622;2022-11-23T00:49:11;9.10;99.90
38500;DHT22;24269;51.894;4.622;2022-11-23T00:51:37;9.10;99.90
38500;DHT22;24269;51.894;4.622;2022-11-23T00:54:04;9.10;99.90
38500;DHT22;24269;51.894;4.622;2022-11-23T00:56:31;9.10;99.90
38500;DHT22;24269;51.894;4.622;2022-11-23T00:58:58;9.10;99.90
38500;DHT22;24269;51.894;4.622;2022-11-23T01:01:26;9.10;99.90
38500;DHT22;24269;51.894;4.622;2022-11-23T01:03:55;9.10;99.90
38500;DHT22;24269;51.894;4.622;2022-11-23T01:06:25;9.00;99.90
38500;DHT22;24269;51.894;4.622;2022-11-23T01:09:10;9.10;99.90
38500;DHT22;24269;51.894;4.622;2022-11-23T01:11:36;9.10;99.90
38500;DHT22;24269;51.894;4.622;2022-11-23T01:14:03;9.00;99.90
38500;DHT22;24269;51.894;4.622;2022-11-23T01:16:32;9.00;99.90
38500;DHT22;24269;51.894;4.622;2022-11-23T01:19:03;9.00;99.90
38500;DHT22;24269;51.894;4.622;2022-11-23T01:21:31;9.00;99.90
38500;DHT22;24269;51.894;4.622;2022-11-23T01:23:57;9.00;99.90
38500;DHT22;24269;51.894;4.622;2022-11-23T01:26:23;8.90;99.90
38500;DHT22;24269;51.894;4.622;2022-11-23T01:28:49;9.00;99.90
38500;DHT22;24269;51.894;4.622;2022-11-23T01:31:18;9.00;99.90
38500;DHT22;24269;51.894;4.622;2022-11-23T01:33:44;8.90;99.90
38500;DHT22;24269;51.894;4.622;2022-11-23T01:36:15;8.90;99.90
38500;DHT22;24269;51.894;4.622;2022-11-23T01:38:42;8.90;99.90
38500;DHT22;24269;51.894;4.622;2022-11-23T01:41:12;8.90;99.90
38500;DHT22;24269;51.894;4.622;2022-11-23T01:43:39;8.90;99.90
38500;DHT22;24269;51.894;4.622;2022-11-23T01:46:05;8.90;99.90
38500;DHT22;24269;51.894;4.622;2022-11-23T01:48:55;8.90;99.90
38500;DHT22;24269;51.894;4.622;2022-11-23T01:51:32;8.90;99.90
38500;DHT22;24269;51.894;4.622;2022-11-23T01:54:02;8.80;99.90
38500;DHT22;24269;51.894;4.622;2022-11-23T01:56:34;8.80;99.90
38500;DHT22;24269;51.894;4.622;2022-11-23T01:59:02;8.70;99.90
38500;DHT22;24269;51.894;4.622;2022-11-23T02:01:29;8.70;99.90
38500;DHT22;24269;51.894;4.622;2022-11-23T02:03:58;8.70;99.90
38500;DHT22;24269;51.894;4.622;2022-11-23T02:06:24;8.70;99.90
38500;DHT22;24269;51.894;4.622;2022-11-23T02:08:50;8.60;99.90
38500;DHT22;24269;51.894;4.622;2022-11-23T02:11:16;8.60;99.90
38500;DHT22;24269;51.894;4.622;2022-11-23T02:13:44;8.60;99.90
38500;DHT22;24269;51.894;4.622;2022-11-23T02:16:10;8.70;99.90
38500;DHT22;24269;51.894;4.622;2022-11-23T02:18:36;8.70;99.90
38500;DHT22;24269;51.894;4.622;2022-11-23T02:21:04;8.60;99.90
38500;DHT22;24269;51.894;4.622;2022-11-23T02:29:05;8.70;99.90
38500;DHT22;24269;51.894;4.622;2022-11-23T02:31:29;8.70;99.90
38500;DHT22;24269;51.894;4.622;2022-11-23T02:33:54;8.70;99.90
38500;DHT22;24269;51.894;4.622;2022-11-23T02:36:39;8.70;99.90
38500;DHT22;24269;51.894;4.622;2022-11-23T02:39:18;8.80;99.90
38500;DHT22;24269;51.894;4.622;2022-11-23T02:41:47;8.80;99.90
38500;DHT22;24269;51.894;4.622;2022-11-23T02:44:34;8.80;99.90
38500;DHT22;24269;51.894;4.622;2022-11-23T02:47:02;8.80;99.90
38500;DHT22;24269;51.894;4.622;2022-11-23T02:49:28;8.80;99.90
38500;DHT22;24269;51.894;4.622;2022-11-23T02:51:53;8.80;99.90
38500;DHT22;24269;51.894;4.622;2022-11-23T02:54:19;8.80;99.90
38500;DHT22;24269;51.894;4.622;2022-11-23T02:56:45;8.90;99.90
38500;DHT22;24269;51.894;4.622;2022-11-23T02:59:10;8.90;99.90
38500;DHT22;24269;51.894;4.622;2022-11-23T03:01:36;8.90;99.90
38500;DHT22;24269;51.894;4.622;2022-11-23T03:04:04;8.90;99.90
38500;DHT22;24269;51.894;4.622;2022-11-23T03:06:30;8.90;99.90
38500;DHT22;24269;51.894;4.622;2022-11-23T03:08:55;8.90;99.90
38500;DHT22;24269;51.894;4.622;2022-11-23T03:11:21;9.00;99.90
38500;DHT22;24269;51.894;4.622;2022-11-23T03:13:47;9.00;99.90
38500;DHT22;24269;51.894;4.622;2022-11-23T03:16:12;9.10;99.90
38500;DHT22;24269;51.894;4.622;2022-11-23T03:18:38;9.10;99.90
38500;DHT22;24269;51.894;4.622;2022-11-23T03:21:06;9.10;99.90
38500;DHT22;24269;51.894;4.622;2022-11-23T03:23:35;9.10;99.90
38500;DHT22;24269;51.894;4.622;2022-11-23T03:26:02;9.20;99.90
38500;DHT22;24269;51.894;4.622;2022-11-23T03:28:28;9.20;99.90
38500;DHT22;24269;51.894;4.622;2022-11-23T03:30:53;9.20;99.90
38500;DHT22;24269;51.894;4.622;2022-11-23T03:33:19;9.20;99.90
38500;DHT22;24269;51.894;4.622;2022-11-23T03:35:45;9.20;99.90
38500;DHT22;24269;51.894;4.622;2022-11-23T03:38:10;9.30;99.90
38500;DHT22;24269;51.894;4.622;2022-11-23T03:40:36;9.30;99.90
38500;DHT22;24269;51.894;4.622;2022-11-23T03:43:02;9.30;99.90
38500;DHT22;24269;51.894;4.622;2022-11-23T03:45:28;9.30;99.90
38500;DHT22;24269;51.894;4.622;2022-11-23T03:47:53;9.30;99.90
38500;DHT22;24269;51.894;4.622;2022-11-23T03:50:19;9.30;99.90
38500;DHT22;24269;51.894;4.622;2022-11-23T03:52:46;9.20;99.90
38500;DHT22;24269;51.894;4.622;2022-11-23T03:55:12;9.30;99.90
38500;DHT22;24269;51.894;4.622;2022-11-23T03:57:38;9.20;99.90
38500;DHT22;24269;51.894;4.622;2022-11-23T04:00:04;9.30;99.90
38500;DHT22;24269;51.894;4.622;2022-11-23T04:02:29;9.30;99.90
38500;DHT22;24269;51.894;4.622;2022-11-23T04:04:55;9.30;99.90
38500;DHT22;24269;51.894;4.622;2022-11-23T04:07:20;9.40;99.90
38500;DHT22;24269;51.894;4.622;2022-11-23T04:09:46;9.40;99.90
38500;DHT22;24269;51.894;4.622;2022-11-23T04:12:11;9.40;99.90
38500;DHT22;24269;51.894;4.622;2022-11-23T04:14:37;9.40;99.90
38500;DHT22;24269;51.894;4.622;2022-11-23T04:17:03;9.40;99.90
38500;DHT22;24269;51.894;4.622;2022-11-23T04:19:29;9.40;99.90
38500;DHT22;24269;51.894;4.622;2022-11-23T04:21:54;9.40;99.90
38500;DHT22;24269;51.894;4.622;2022-11-23T04:24:20;9.40;99.90
38500;DHT22;24269;51.894;4.622;2022-11-23T04:26:46;9.50;99.90
38500;DHT22;24269;51.894;4.622;2022-11-23T04:29:11;9.50;99.90
38500;DHT22;24269;51.894;4.622;2022-11-23T04:31:37;9.50;99.90
38500;DHT22;24269;51.894;4.622;2022-11-23T04:34:02;9.50;99.90
38500;DHT22;24269;51.894;4.622;2022-11-23T04:36:28;9.50;99.90
38500;DHT22;24269;51.894;4.622;2022-11-23T04:38:54;9.50;99.90
38500;DHT22;24269;51.894;4.622;2022-11-23T04:41:20;9.50;99.90
38500;DHT22;24269;51.894;4.622;2022-11-23T04:43:47;9.40;99.90
38500;DHT22;24269;51.894;4.622;2022-11-23T04:46:13;9.40;99.90
38500;DHT22;24269;51.894;4.622;2022-11-23T04:48:39;9.40;99.90
38500;DHT22;24269;51.894;4.622;2022-11-23T04:51:04;9.40;99.90
38500;DHT22;24269;51.894;4.622;2022-11-23T04:53:30;9.40;99.90
38500;DHT22;24269;51.894;4.622;2022-11-23T04:55:56;9.40;99.90
38500;DHT22;24269;51.894;4.622;2022-11-23T04:58:22;9.40;99.90
38500;DHT22;24269;51.894;4.622;2022-11-23T05:00:48;9.40;99.90
38500;DHT22;24269;51.894;4.622;2022-11-23T05:03:13;9.30;99.90
38500;DHT22;24269;51.894;4.622;2022-11-23T05:05:39;9.30;99.90
38500;DHT22;24269;51.894;4.622;2022-11-23T05:08:06;9.30;99.90
38500;DHT22;24269;51.894;4.622;2022-11-23T05:10:32;9.30;99.90
38500;DHT22;24269;51.894;4.622;2022-11-23T05:12:58;9.30;99.90
38500;DHT22;24269;51.894;4.622;2022-11-23T05:15:24;9.20;99.90
38500;DHT22;24269;51.894;4.622;2022-11-23T05:17:50;9.20;99.90
38500;DHT22;24269;51.894;4.622;2022-11-23T05:20:15;9.10;99.90
38500;DHT22;24269;51.894;4.622;2022-11-23T05:22:41;9.20;99.90
38500;DHT22;24269;51.894;4.622;2022-11-23T05:25:07;9.10;99.90
38500;DHT22;24269;51.894;4.622;2022-11-23T05:27:33;9.10;99.90
38500;DHT22;24269;51.894;4.622;2022-11-23T05:29:59;9.00;99.90
38500;DHT22;24269;51.894;4.622;2022-11-23T05:32:25;9.00;99.90
38500;DHT22;24269;51.894;4.622;2022-11-23T05:34:51;9.00;99.90
38500;DHT22;24269;51.894;4.622;2022-11-23T05:37:16;8.90;99.90
38500;DHT22;24269;51.894;4.622;2022-11-23T05:39:42;8.90;99.90
38500;DHT22;24269;51.894;4.622;2022-11-23T05:42:07;8.90;99.90
38500;DHT22;24269;51.894;4.622;2022-11-23T05:44:33;8.90;99.90
38500;DHT22;24269;51.894;4.622;2022-11-23T05:46:59;8.80;99.90
38500;DHT22;24269;51.894;4.622;2022-11-23T05:49:25;8.80;99.90
38500;DHT22;24269;51.894;4.622;2022-11-23T05:51:50;8.80;99.90
38500;DHT22;24269;51.894;4.622;2022-11-23T05:54:16;8.80;99.90
38500;DHT22;24269;51.894;4.622;2022-11-23T05:56:41;8.80;99.90
38500;DHT22;24269;51.894;4.622;2022-11-23T05:59:07;8.80;99.90
38500;DHT22;24269;51.894;4.622;2022-11-23T06:01:33;8.80;99.90
38500;DHT22;24269;51.894;4.622;2022-11-23T06:03:58;8.80;99.90
38500;DHT22;24269;51.894;4.622;2022-11-23T06:06:24;8.80;99.90
38500;DHT22;24269;51.894;4.622;2022-11-23T06:08:50;8.80;99.90
38500;DHT22;24269;51.894;4.622;2022-11-23T06:11:16;8.80;99.90
38500;DHT22;24269;51.894;4.622;2022-11-23T06:13:43;8.70;99.90
38500;DHT22;24269;51.894;4.622;2022-11-23T06:16:10;8.70;99.90
38500;DHT22;24269;51.894;4.622;2022-11-23T06:18:36;8.70;99.90
38500;DHT22;24269;51.894;4.622;2022-11-23T06:21:01;8.70;99.90
38500;DHT22;24269;51.894;4.622;2022-11-23T06:23:27;8.70;99.90
38500;DHT22;24269;51.894;4.622;2022-11-23T06:25:52;8.70;99.90
38500;DHT22;24269;51.894;4.622;2022-11-23T06:28:18;8.60;99.90
38500;DHT22;24269;51.894;4.622;2022-11-23T06:30:44;8.60;99.90
38500;DHT22;24269;51.894;4.622;2022-11-23T06:33:09;8.60;99.90
38500;DHT22;24269;51.894;4.622;2022-11-23T06:35:35;8.60;99.90
38500;DHT22;24269;51.894;4.622;2022-11-23T06:38:01;8.60;99.90
38500;DHT22;24269;51.894;4.622;2022-11-23T06:40:26;8.60;99.90
38500;DHT22;24269;51.894;4.622;2022-11-23T06:43:00;8.60;99.90
38500;DHT22;24269;51.894;4.622;2022-11-23T06:45:26;8.60;99.90
38500;DHT22;24269;51.894;4.622;2022-11-23T06:47:55;8.60;99.90
38500;DHT22;24269;51.894;4.622;2022-11-23T06:50:21;8.60;99.90
38500;DHT22;24269;51.894;4.622;2022-11-23T06:52:47;8.60;99.90
38500;DHT22;24269;51.894;4.622;2022-11-23T06:55:12;8.70;99.90
38500;DHT22;24269;51.894;4.622;2022-11-23T06:57:38;8.70;99.90
38500;DHT22;24269;51.894;4.622;2022-11-23T07:00:04;8.70;99.90
38500;DHT22;24269;51.894;4.622;2022-11-23T07:02:30;8.60;99.90
38500;DHT22;24269;51.894;4.622;2022-11-23T07:04:55;8.60;99.90
38500;DHT22;24269;51.894;4.622;2022-11-23T07:07:21;8.70;99.90
38500;DHT22;24269;51.894;4.622;2022-11-23T07:09:46;8.70;99.90
38500;DHT22;24269;51.894;4.622;2022-11-23T07:12:12;8.70;99.90
38500;DHT22;24269;51.894;4.622;2022-11-23T07:14:38;8.70;99.90
38500;DHT22;24269;51.894;4.622;2022-11-23T07:17:03;8.80;99.90
38500;DHT22;24269;51.894;4.622;2022-11-23T07:19:29;8.80;99.90
38500;DHT22;24269;51.894;4.622;2022-11-23T07:21:55;8.80;99.90
38500;DHT22;24269;51.894;4.622;2022-11-23T07:24:20;8.80;99.90
38500;DHT22;24269;51.894;4.622;2022-11-23T07:26:46;8.80;99.90
38500;DHT22;24269;51.894;4.622;2022-11-23T07:29:11;8.80;99.90
38500;DHT22;24269;51.894;4.622;2022-11-23T07:31:37;8.80;99.90
38500;DHT22;24269;51.894;4.622;2022-11-23T07:34:03;8.80;99.90
38500;DHT22;24269;51.894;4.622;2022-11-23T07:36:29;8.80;99.90
38500;DHT22;24269;51.894;4.622;2022-11-23T07:38:55;8.80;99.90
38500;DHT22;24269;51.894;4.622;2022-11-23T07:41:20;8.90;99.90
38500;DHT22;24269;51.894;4.622;2022-11-23T07:43:46;8.90;99.90
38500;DHT22;24269;51.894;4.622;2022-11-23T07:46:12;8.80;99.90
38500;DHT22;24269;51.894;4.622;2022-11-23T07:48:38;8.90;99.90
38500;DHT22;24269;51.894;4.622;2022-11-23T07:51:03;8.80;99.90
38500;DHT22;24269;51.894;4.622;2022-11-23T07:53:29;8.80;99.90
38500;DHT22;24269;51.894;4.622;2022-11-23T07:55:56;8.90;99.90
38500;DHT22;24269;51.894;4.622;2022-11-23T07:58:23;8.90;99.90
38500;DHT22;24269;51.894;4.622;2022-11-23T08:00:49;8.90;99.90
38500;DHT22;24269;51.894;4.622;2022-11-23T08:03:15;8.90;99.90
38500;DHT22;24269;51.894;4.622;2022-11-23T08:05:40;8.90;99.90
38500;DHT22;24269;51.894;4.622;2022-11-23T08:08:06;8.90;99.90
38500;DHT22;24269;51.894;4.622;2022-11-23T08:10:32;9.00;99.90
38500;DHT22;24269;51.894;4.622;2022-11-23T08:13:03;9.00;99.90
38500;DHT22;24269;51.894;4.622;2022-11-23T08:15:29;9.00;99.90
38500;DHT22;24269;51.894;4.622;2022-11-23T08:17:59;9.10;99.90
38500;DHT22;24269;51.894;4.622;2022-11-23T08:20:26;9.10;99.90
38500;DHT22;24269;51.894;4.622;2022-11-23T08:22:52;9.00;99.90
38500;DHT22;24269;51.894;4.622;2022-11-23T08:25:24;9.10;99.90
38500;DHT22;24269;51.894;4.622;2022-11-23T08:28:01;9.10;99.90
38500;DHT22;24269;51.894;4.622;2022-11-23T08:30:28;9.20;99.90
38500;DHT22;24269;51.894;4.622;2022-11-23T08:32:54;9.30;99.90
38500;DHT22;24269;51.894;4.622;2022-11-23T08:35:20;9.30;99.90
38500;DHT22;24269;51.894;4.622;2022-11-23T08:37:46;9.40;99.90
38500;DHT22;24269;51.894;4.622;2022-11-23T08:40:12;9.40;99.90
38500;DHT22;24269;51.894;4.622;2022-11-23T08:42:38;9.40;99.90
38500;DHT22;24269;51.894;4.622;2022-11-23T08:45:04;9.40;99.90
38500;DHT22;24269;51.894;4.622;2022-11-23T08:47:31;9.50;99.90
38500;DHT22;24269;51.894;4.622;2022-11-23T08:49:57;9.50;99.90
38500;DHT22;24269;51.894;4.622;2022-11-23T08:52:22;9.50;99.90
38500;DHT22;24269;51.894;4.622;2022-11-23T08:54:48;9.60;99.90
38500;DHT22;24269;51.894;4.622;2022-11-23T08:57:14;9.50;99.90
38500;DHT22;24269;51.894;4.622;2022-11-23T08:59:39;9.50;99.90
38500;DHT22;24269;51.894;4.622;2022-11-23T09:02:05;9.50;99.90
38500;DHT22;24269;51.894;4.622;2022-11-23T09:04:31;9.50;99.90
38500;DHT22;24269;51.894;4.622;2022-11-23T09:06:56;9.50;99.90
38500;DHT22;24269;51.894;4.622;2022-11-23T09:09:22;9.50;99.90
38500;DHT22;24269;51.894;4.622;2022-11-23T09:11:47;9.40;99.90
38500;DHT22;24269;51.894;4.622;2022-11-23T09:14:14;9.40;99.90
38500;DHT22;24269;51.894;4.622;2022-11-23T09:16:40;9.40;99.90
38500;DHT22;24269;51.894;4.622;2022-11-23T09:19:05;9.30;99.90
38500;DHT22;24269;51.894;4.622;2022-11-23T09:21:32;9.30;99.90
38500;DHT22;24269;51.894;4.622;2022-11-23T09:24:00;9.30;99.90
38500;DHT22;24269;51.894;4.622;2022-11-23T09:26:26;9.30;99.90
38500;DHT22;24269;51.894;4.622;2022-11-23T09:28:52;9.30;99.90
38500;DHT22;24269;51.894;4.622;2022-11-23T09:31:17;9.30;99.90
38500;DHT22;24269;51.894;4.622;2022-11-23T09:33:43;9.20;99.90
38500;DHT22;24269;51.894;4.622;2022-11-23T09:36:09;9.20;99.90
38500;DHT22;24269;51.894;4.622;2022-11-23T09:38:35;9.20;99.90
38500;DHT22;24269;51.894;4.622;2022-11-23T09:43:56;9.20;99.90
38500;DHT22;24269;51.894;4.622;2022-11-23T09:46:47;9.30;99.90
38500;DHT22;24269;51.894;4.622;2022-11-23T09:49:20;9.30;99.90
38500;DHT22;24269;51.894;4.622;2022-11-23T09:51:47;9.40;99.90
38500;DHT22;24269;51.894;4.622;2022-11-23T09:54:32;9.40;99.90
38500;DHT22;24269;51.894;4.622;2022-11-23T09:56:59;9.40;99.90
38500;DHT22;24269;51.894;4.622;2022-11-23T09:59:40;9.30;99.90
38500;DHT22;24269;51.894;4.622;2022-11-23T10:02:33;9.40;99.90
38500;DHT22;24269;51.894;4.622;2022-11-23T10:04:59;9.40;99.90
38500;DHT22;24269;51.894;4.622;2022-11-23T10:15:23;9.40;99.90
38500;DHT22;24269;51.894;4.622;2022-11-23T10:17:57;9.20;99.90
38500;DHT22;24269;51.894;4.622;2022-11-23T10:20:48;9.10;99.90
38500;DHT22;24269;51.894;4.622;2022-11-23T10:26:27;9.00;99.90
38500;DHT22;24269;51.894;4.622;2022-11-23T10:28:55;9.00;99.90
38500;DHT22;24269;51.894;4.622;2022-11-23T10:31:23;8.90;99.90
38500;DHT22;24269;51.894;4.622;2022-11-23T10:34:09;8.90;99.90
38500;DHT22;24269;51.894;4.622;2022-11-23T10:36:37;8.80;99.90
38500;DHT22;24269;51.894;4.622;2022-11-23T10:39:16;8.80;99.90
38500;DHT22;24269;51.894;4.622;2022-11-23T10:41:44;8.80;99.90
38500;DHT22;24269;51.894;4.622;2022-11-23T10:46:49;8.70;99.90
38500;DHT22;24269;51.894;4.622;2022-11-23T10:54:34;8.80;99.90
38500;DHT22;24269;51.894;4.622;2022-11-23T10:57:20;8.90;99.90
38500;DHT22;24269;51.894;4.622;2022-11-23T11:00:14;9.00;99.90
38500;DHT22;24269;51.894;4.622;2022-11-23T11:03:33;9.00;99.90
38500;DHT22;24269;51.894;4.622;2022-11-23T11:05:59;9.20;99.90
38500;DHT22;24269;51.894;4.622;2022-11-23T11:08:29;9.30;99.90
38500;DHT22;24269;51.894;4.622;2022-11-23T11:11:02;9.60;99.90
38500;DHT22;24269;51.894;4.622;2022-11-23T11:13:39;9.70;99.90
38500;DHT22;24269;51.894;4.622;2022-11-23T11:16:20;9.80;99.90
38500;DHT22;24269;51.894;4.622;2022-11-23T11:18:47;9.90;99.90
38500;DHT22;24269;51.894;4.622;2022-11-23T11:21:26;10.00;99.90
38500;DHT22;24269;51.894;4.622;2022-11-23T11:24:01;10.00;99.90
38500;DHT22;24269;51.894;4.622;2022-11-23T11:26:29;10.10;99.90
38500;DHT22;24269;51.894;4.622;2022-11-23T11:28:59;10.10;99.90
38500;DHT22;24269;51.894;4.622;2022-11-23T11:39:46;10.30;99.90
38500;DHT22;24269;51.894;4.622;2022-11-23T11:42:30;10.50;99.90
38500;DHT22;24269;51.894;4.622;2022-11-23T11:44:59;10.60;99.90
38500;DHT22;24269;51.894;4.622;2022-11-23T11:47:58;10.70;99.90
38500;DHT22;24269;51.894;4.622;2022-11-23T11:50:35;10.70;99.90
38500;DHT22;24269;51.894;4.622;2022-11-23T11:53:11;10.80;99.90
38500;DHT22;24269;51.894;4.622;2022-11-23T11:58:11;10.90;99.90
38500;DHT22;24269;51.894;4.622;2022-11-23T12:00:39;11.00;99.90
38500;DHT22;24269;51.894;4.622;2022-11-23T12:03:26;11.00;99.90
38500;DHT22;24269;51.894;4.622;2022-11-23T12:05:58;11.00;99.90
38500;DHT22;24269;51.894;4.622;2022-11-23T12:11:00;10.80;99.90
38500;DHT22;24269;51.894;4.622;2022-11-23T12:13:27;10.70;99.90
38500;DHT22;24269;51.894;4.622;2022-11-23T12:27:23;10.50;99.90
38500;DHT22;24269;51.894;4.622;2022-11-23T12:36:10;10.50;99.90
38500;DHT22;24269;51.894;4.622;2022-11-23T12:49:50;10.40;99.90
38500;DHT22;24269;51.894;4.622;2022-11-23T12:55:28;10.30;99.90
38500;DHT22;24269;51.894;4.622;2022-11-23T12:58:29;10.30;99.90
38500;DHT22;24269;51.894;4.622;2022-11-23T13:00:59;10.20;99.90
38500;DHT22;24269;51.894;4.622;2022-11-23T13:03:48;10.10;99.90
38500;DHT22;24269;51.894;4.622;2022-11-23T13:09:45;9.90;99.90
38500;DHT22;24269;51.894;4.622;2022-11-23T13:22:56;9.50;99.90
38500;DHT22;24269;51.894;4.622;2022-11-23T13:25:27;9.50;99.90
38500;DHT22;24269;51.894;4.622;2022-11-23T13:33:23;9.40;99.90
38500;DHT22;24269;51.894;4.622;2022-11-23T13:35:52;9.40;99.90
38500;DHT22;24269;51.894;4.622;2022-11-23T13:38:24;9.40;99.90
38500;DHT22;24269;51.894;4.622;2022-11-23T13:40:51;9.40;99.90
38500;DHT22;24269;51.894;4.622;2022-11-23T13:43:22;9.40;99.90
38500;DHT22;24269;51.894;4.622;2022-11-23T13:46:29;9.40;99.90
38500;DHT22;24269;51.894;4.622;2022-11-23T13:48:58;9.30;99.90
38500;DHT22;24269;51.894;4.622;2022-11-23T13:51:28;9.30;99.90
38500;DHT22;24269;51.894;4.622;2022-11-23T13:54:03;9.30;99.90
38500;DHT22;24269;51.894;4.622;2022-11-23T13:56:30;9.30;99.90
38500;DHT22;24269;51.894;4.622;2022-11-23T13:58:59;9.20;99.90
38500;DHT22;24269;51.894;4.622;2022-11-23T14:04:44;9.30;99.90
38500;DHT22;24269;51.894;4.622;2022-11-23T14:07:28;9.30;99.90
38500;DHT22;24269;51.894;4.622;2022-11-23T14:10:04;9.20;99.90
38500;DHT22;24269;51.894;4.622;2022-11-23T14:12:35;9.20;99.90
38500;DHT22;24269;51.894;4.622;2022-11-23T14:15:22;9.10;99.90
38500;DHT22;24269;51.894;4.622;2022-11-23T14:24:08;9.20;99.90
38500;DHT22;24269;51.894;4.622;2022-11-23T14:29:51;9.20;99.90
38500;DHT22;24269;51.894;4.622;2022-11-23T14:32:52;9.20;99.90
38500;DHT22;24269;51.894;4.622;2022-11-23T14:41:15;9.20;99.90
38500;DHT22;24269;51.894;4.622;2022-11-23T14:43:44;9.20;99.90
38500;DHT22;24269;51.894;4.622;2022-11-23T14:46:18;9.20;99.90
38500;DHT22;24269;51.894;4.622;2022-11-23T14:48:45;9.20;99.90
38500;DHT22;24269;51.894;4.622;2022-11-23T14:51:16;9.20;99.90
38500;DHT22;24269;51.894;4.622;2022-11-23T14:53:44;9.20;99.90
38500;DHT22;24269;51.894;4.622;2022-11-23T14:56:40;9.20;99.90
38500;DHT22;24269;51.894;4.622;2022-11-23T14:59:31;9.20;99.90
38500;DHT22;24269;51.894;4.622;2022-11-23T15:02:01;9.20;99.90
38500;DHT22;24269;51.894;4.622;2022-11-23T15:04:29;9.20;99.90
38500;DHT22;24269;51.894;4.622;2022-11-23T15:07:05;9.30;99.90
38500;DHT22;24269;51.894;4.622;2022-11-23T15:09:45;9.30;99.90
38500;DHT22;24269;51.894;4.622;2022-11-23T15:12:21;9.20;99.90
38500;DHT22;24269;51.894;4.622;2022-11-23T15:14:47;9.20;99.90
38500;DHT22;24269;51.894;4.622;2022-11-23T15:17:18;9.20;99.90
38500;DHT22;24269;51.894;4.622;2022-11-23T15:19:56;9.20;99.90
38500;DHT22;24269;51.894;4.622;2022-11-23T15:22:21;9.20;99.90
38500;DHT22;24269;51.894;4.622;2022-11-23T15:24:49;9.20;99.90
38500;DHT22;24269;51.894;4.622;2022-11-23T15:27:18;9.20;99.90
38500;DHT22;24269;51.894;4.622;2022-11-23T15:29:52;9.10;99.90
38500;DHT22;24269;51.894;4.622;2022-11-23T15:32:29;9.20;99.90
38500;DHT22;24269;51.894;4.622;2022-11-23T15:34:58;9.20;99.90
38500;DHT22;24269;51.894;4.622;2022-11-23T15:37:25;9.20;99.90
38500;DHT22;24269;51.894;4.622;2022-11-23T15:39:53;9.30;99.90
38500;DHT22;24269;51.894;4.622;2022-11-23T15:42:21;9.30;99.90
38500;DHT22;24269;51.894;4.622;2022-11-23T15:44:48;9.30;99.90
38500;DHT22;24269;51.894;4.622;2022-11-23T15:47:17;9.30;99.90
38500;DHT22;24269;51.894;4.622;2022-11-23T15:49:45;9.30;99.90
38500;DHT22;24269;51.894;4.622;2022-11-23T15:52:14;9.40;99.90
38500;DHT22;24269;51.894;4.622;2022-11-23T15:54:40;9.40;99.90
38500;DHT22;24269;51.894;4.622;2022-11-23T15:57:11;9.40;99.90
38500;DHT22;24269;51.894;4.622;2022-11-23T15:59:47;9.40;99.90
38500;DHT22;24269;51.894;4.622;2022-11-23T16:02:16;9.40;99.90
38500;DHT22;24269;51.894;4.622;2022-11-23T16:04:42;9.40;99.90
38500;DHT22;24269;51.894;4.622;2022-11-23T16:07:18;9.40;99.90
38500;DHT22;24269;51.894;4.622;2022-11-23T16:09:46;9.40;99.90
38500;DHT22;24269;51.894;4.622;2022-11-23T16:12:27;9.40;99.90
38500;DHT22;24269;51.894;4.622;2022-11-23T16:14:55;9.40;99.90
38500;DHT22;24269;51.894;4.622;2022-11-23T16:17:23;9.40;99.90
38500;DHT22;24269;51.894;4.622;2022-11-23T16:19:51;9.40;99.90
38500;DHT22;24269;51.894;4.622;2022-11-23T16:22:27;9.40;99.90
38500;DHT22;24269;51.894;4.622;2022-11-23T16:25:00;9.40;99.90
38500;DHT22;24269;51.894;4.622;2022-11-23T16:27:27;9.30;99.90
38500;DHT22;24269;51.894;4.622;2022-11-23T16:29:53;9.40;99.90
38500;DHT22;24269;51.894;4.622;2022-11-23T16:32:25;9.30;99.90
38500;DHT22;24269;51.894;4.622;2022-11-23T16:34:51;9.40;99.90
38500;DHT22;24269;51.894;4.622;2022-11-23T16:37:17;9.30;99.90
38500;DHT22;24269;51.894;4.622;2022-11-23T16:39:42;9.30;99.90
38500;DHT22;24269;51.894;4.622;2022-11-23T16:42:15;9.40;99.90
38500;DHT22;24269;51.894;4.622;2022-11-23T16:44:41;9.30;99.90
38500;DHT22;24269;51.894;4.622;2022-11-23T16:47:26;9.30;99.90
38500;DHT22;24269;51.894;4.622;2022-11-23T16:49:53;9.30;99.90
38500;DHT22;24269;51.894;4.622;2022-11-23T16:52:19;9.30;99.90
38500;DHT22;24269;51.894;4.622;2022-11-23T16:54:46;9.30;99.90
38500;DHT22;24269;51.894;4.622;2022-11-23T16:57:30;9.30;99.90
38500;DHT22;24269;51.894;4.622;2022-11-23T17:00:00;9.30;99.90
38500;DHT22;24269;51.894;4.622;2022-11-23T17:02:26;9.30;99.90
38500;DHT22;24269;51.894;4.622;2022-11-23T17:04:52;9.30;99.90
38500;DHT22;24269;51.894;4.622;2022-11-23T17:07:18;9.30;99.90
38500;DHT22;24269;51.894;4.622;2022-11-23T17:09:43;9.30;99.90
38500;DHT22;24269;51.894;4.622;2022-11-23T17:12:14;9.20;99.90
38500;DHT22;24269;51.894;4.622;2022-11-23T17:14:41;9.20;99.90
38500;DHT22;24269;51.894;4.622;2022-11-23T17:17:10;9.20;99.90
38500;DHT22;24269;51.894;4.622;2022-11-23T17:19:36;9.10;99.90
38500;DHT22;24269;51.894;4.622;2022-11-23T17:22:01;9.10;99.90
38500;DHT22;24269;51.894;4.622;2022-11-23T17:24:27;9.10;99.90
38500;DHT22;24269;51.894;4.622;2022-11-23T17:26:52;9.00;99.90
38500;DHT22;24269;51.894;4.622;2022-11-23T17:29:19;9.00;99.90
38500;DHT22;24269;51.894;4.622;2022-11-23T17:31:49;9.00;99.90
38500;DHT22;24269;51.894;4.622;2022-11-23T17:34:15;9.00;99.90
38500;DHT22;24269;51.894;4.622;2022-11-23T17:36:42;9.00;99.90
38500;DHT22;24269;51.894;4.622;2022-11-23T17:39:20;9.00;99.90
38500;DHT22;24269;51.894;4.622;2022-11-23T17:41:47;9.00;99.90
38500;DHT22;24269;51.894;4.622;2022-11-23T17:44:13;9.00;99.90
38500;DHT22;24269;51.894;4.622;2022-11-23T17:46:39;9.00;99.90